createdAt,value
2023-04-21T00:01:44.600Z,7.80
2023-04-21T00:04:13.923Z,7.80
2023-04-21T00:06:41.678Z,7.80
2023-04-21T00:09:08.918Z,7.80
2023-04-21T00:11:35.616Z,7.70
2023-04-21T00:14:05.339Z,7.70
2023-04-21T00:16:32.074Z,7.70
2023-04-21T00:19:08.656Z,7.60
2023-04-21T00:21:38.096Z,7.50
2023-04-21T00:24:05.066Z,7.40
2023-04-21T00:26:32.120Z,7.40
2023-04-21T00:28:58.877Z,7.30
2023-04-21T00:31:25.707Z,7.40
2023-04-21T00:33:54.247Z,7.40
2023-04-21T00:36:23.440Z,7.40
2023-04-21T00:38:50.141Z,7.30
2023-04-21T00:41:16.780Z,7.30
2023-04-21T00:44:03.183Z,7.20
2023-04-21T00:46:30.258Z,7.30
2023-04-21T00:48:58.896Z,7.30
2023-04-21T00:51:28.211Z,7.20
2023-04-21T00:53:56.171Z,7.10
2023-04-21T00:56:25.988Z,7.10
2023-04-21T00:58:53.270Z,7.00
2023-04-21T01:01:20.188Z,7.10
2023-04-21T01:04:30.030Z,7.10
2023-04-21T01:06:58.853Z,7.20
2023-04-21T01:09:27.649Z,7.20
2023-04-21T01:12:05.034Z,7.20
2023-04-21T01:14:32.187Z,7.30
2023-04-21T01:16:59.470Z,7.30
2023-04-21T01:19:30.651Z,7.30
2023-04-21T01:22:00.971Z,7.10
2023-04-21T01:24:38.922Z,7.30
2023-04-21T01:27:09.312Z,7.30
2023-04-21T01:29:35.965Z,7.40
2023-04-21T01:32:08.814Z,7.50
2023-04-21T01:34:36.309Z,7.40
2023-04-21T01:37:10.225Z,7.30
2023-04-21T01:39:45.317Z,7.30
2023-04-21T01:42:12.593Z,7.40
2023-04-21T01:44:39.655Z,7.30
2023-04-21T01:47:07.649Z,7.40
2023-04-21T01:49:34.364Z,7.30
2023-04-21T01:52:01.208Z,7.30
2023-04-21T01:54:30.066Z,7.20
2023-04-21T01:56:57.982Z,7.20
2023-04-21T01:59:25.108Z,7.10
2023-04-21T02:01:54.087Z,7.20
2023-04-21T02:04:21.074Z,7.20
2023-04-21T02:06:48.234Z,7.10
2023-04-21T02:09:14.738Z,7.20
2023-04-21T02:11:41.733Z,7.40
2023-04-21T02:14:08.532Z,7.30
2023-04-21T02:16:35.495Z,7.40
2023-04-21T02:19:11.289Z,7.50
2023-04-21T02:21:37.780Z,7.40
2023-04-21T02:24:21.204Z,7.40
2023-04-21T02:26:47.750Z,7.20
2023-04-21T02:29:16.274Z,7.20
2023-04-21T02:31:54.611Z,7.20
2023-04-21T02:34:24.494Z,7.10
2023-04-21T02:36:53.423Z,7.10
2023-04-21T02:39:22.119Z,7.20
2023-04-21T02:41:48.807Z,7.20
2023-04-21T02:44:19.678Z,7.20
2023-04-21T02:46:46.416Z,7.40
2023-04-21T02:49:14.570Z,7.60
2023-04-21T02:51:42.137Z,7.60
2023-04-21T02:54:10.433Z,7.80
2023-04-21T02:56:37.006Z,7.80
2023-04-21T02:59:07.577Z,7.70
2023-04-21T03:01:34.173Z,7.60
2023-04-21T03:04:00.730Z,7.80
2023-04-21T03:06:31.158Z,7.60
2023-04-21T03:08:58.239Z,7.60
2023-04-21T03:11:24.833Z,7.70
2023-04-21T03:13:51.408Z,7.50
2023-04-21T03:16:18.786Z,7.70
2023-04-21T03:18:45.651Z,7.70
2023-04-21T03:21:12.885Z,7.70
2023-04-21T03:23:39.536Z,7.70
2023-04-21T03:26:09.285Z,7.80
2023-04-21T03:28:35.967Z,7.80
2023-04-21T03:31:09.516Z,7.80
2023-04-21T03:33:36.098Z,7.80
2023-04-21T03:36:03.156Z,7.70
2023-04-21T03:38:31.577Z,7.70
2023-04-21T03:40:58.419Z,7.70
2023-04-21T03:43:24.930Z,7.70
2023-04-21T03:45:54.749Z,7.70
2023-04-21T03:48:21.638Z,7.50
2023-04-21T03:50:48.329Z,7.50
2023-04-21T03:53:16.199Z,7.40
2023-04-21T03:55:42.948Z,7.40
2023-04-21T03:58:09.572Z,7.50
2023-04-21T04:00:36.198Z,7.70
2023-04-21T04:03:03.025Z,7.70
2023-04-21T04:05:30.037Z,7.70
2023-04-21T04:07:57.404Z,7.70
2023-04-21T04:10:25.012Z,7.70
2023-04-21T04:12:52.425Z,7.70
2023-04-21T04:15:19.615Z,7.70
2023-04-21T04:17:48.245Z,7.60
2023-04-21T04:20:15.990Z,7.70
2023-04-21T04:22:45.147Z,7.70
2023-04-21T04:25:15.244Z,7.70
2023-04-21T04:27:42.509Z,7.80
2023-04-21T04:30:10.061Z,7.70
2023-04-21T04:32:41.554Z,7.80
2023-04-21T04:35:15.027Z,7.90
2023-04-21T04:37:42.426Z,8.00
2023-04-21T04:40:10.406Z,8.00
2023-04-21T04:42:37.299Z,7.90
2023-04-21T04:45:05.244Z,8.00
2023-04-21T04:47:31.975Z,8.10
2023-04-21T04:49:58.764Z,8.10
2023-04-21T04:52:26.282Z,8.20
2023-04-21T04:54:54.217Z,8.20
2023-04-21T04:57:23.649Z,8.20
2023-04-21T04:59:57.139Z,8.30
2023-04-21T05:02:24.285Z,8.30
2023-04-21T05:04:51.794Z,8.30
2023-04-21T05:07:18.467Z,8.40
2023-04-21T05:09:45.218Z,8.40
2023-04-21T05:12:11.899Z,8.50
2023-04-21T05:14:38.457Z,8.50
2023-04-21T05:17:06.007Z,8.60
2023-04-21T05:19:36.002Z,8.70
2023-04-21T05:22:02.593Z,8.80
2023-04-21T05:24:29.370Z,8.80
2023-04-21T05:26:55.893Z,8.90
2023-04-21T05:29:22.397Z,9.10
2023-04-21T05:31:49.007Z,9.10
2023-04-21T05:34:15.913Z,9.20
2023-04-21T05:36:43.223Z,9.30
2023-04-21T05:39:09.888Z,9.30
2023-04-21T05:41:37.982Z,9.50
2023-04-21T05:44:04.563Z,9.70
2023-04-21T05:46:31.227Z,9.80
2023-04-21T05:48:57.970Z,9.90
2023-04-21T05:51:24.434Z,10.00
2023-04-21T05:53:53.158Z,10.10
2023-04-21T05:56:20.057Z,10.30
2023-04-21T05:58:46.599Z,10.40
2023-04-21T06:01:13.240Z,10.60
2023-04-21T06:03:39.949Z,10.70
2023-04-21T06:06:18.635Z,11.00
2023-04-21T06:08:45.453Z,11.60
2023-04-21T06:11:12.020Z,12.20
2023-04-21T06:13:39.813Z,14.10
2023-04-21T06:16:08.004Z,15.90
2023-04-21T06:18:34.674Z,17.80
2023-04-21T06:21:01.838Z,19.10
2023-04-21T06:23:31.804Z,17.80
2023-04-21T06:26:05.076Z,18.70
2023-04-21T06:28:32.181Z,21.00
2023-04-21T06:31:01.300Z,21.00
2023-04-21T06:33:28.459Z,20.90
2023-04-21T06:35:55.844Z,20.00
2023-04-21T06:38:25.682Z,20.30
2023-04-21T06:40:55.000Z,20.70
2023-04-21T06:43:21.449Z,22.40
2023-04-21T06:45:48.036Z,22.30
2023-04-21T06:48:14.494Z,24.10
2023-04-21T06:50:41.125Z,25.10
2023-04-21T06:53:10.176Z,26.70
2023-04-21T06:55:36.676Z,25.70
2023-04-21T06:58:03.851Z,25.00
2023-04-21T07:00:40.162Z,24.00
2023-04-21T07:03:07.094Z,22.90
2023-04-21T07:05:33.684Z,23.20
2023-04-21T07:08:05.538Z,24.90
2023-04-21T07:10:32.016Z,25.30
2023-04-21T07:12:58.729Z,25.80
2023-04-21T07:15:28.200Z,27.60
2023-04-21T07:17:54.855Z,26.20
2023-04-21T07:20:21.389Z,26.70
2023-04-21T07:22:49.332Z,28.70
2023-04-21T07:25:16.130Z,25.80
2023-04-21T07:27:42.703Z,27.00
2023-04-21T07:30:12.540Z,29.00
2023-04-21T07:32:39.831Z,28.20
2023-04-21T07:35:07.406Z,28.00
2023-04-21T07:37:34.287Z,29.00
2023-04-21T07:40:01.472Z,29.20
2023-04-21T07:42:28.107Z,28.80
2023-04-21T07:44:56.096Z,28.00
2023-04-21T07:47:22.578Z,29.20
2023-04-21T07:49:49.463Z,30.10
2023-04-21T07:52:16.742Z,29.10
2023-04-21T07:54:43.515Z,29.50
2023-04-21T07:57:10.106Z,28.40
2023-04-21T07:59:36.744Z,29.30
2023-04-21T08:02:03.520Z,28.00
2023-04-21T08:04:30.765Z,27.60
2023-04-21T08:06:59.605Z,30.10
2023-04-21T08:09:26.596Z,30.30
2023-04-21T08:11:53.892Z,29.20
2023-04-21T08:14:23.744Z,28.70
2023-04-21T08:16:50.288Z,29.40
2023-04-21T08:19:19.230Z,29.00
2023-04-21T08:21:46.006Z,30.80
2023-04-21T08:24:14.883Z,29.20
2023-04-21T08:26:41.480Z,28.80
2023-04-21T08:29:10.466Z,29.40
2023-04-21T08:31:37.030Z,28.80
2023-04-21T08:34:06.629Z,27.70
2023-04-21T08:36:35.761Z,28.90
2023-04-21T08:39:04.293Z,30.60
2023-04-21T08:41:31.144Z,28.50
2023-04-21T08:43:57.696Z,28.10
2023-04-21T08:46:28.041Z,29.70
2023-04-21T08:48:55.474Z,29.10
2023-04-21T08:51:24.594Z,27.90
2023-04-21T08:53:55.020Z,27.00
2023-04-21T08:56:21.581Z,28.20
2023-04-21T08:58:56.402Z,28.30
2023-04-21T09:01:25.471Z,29.80
2023-04-21T09:04:15.347Z,28.60
2023-04-21T09:06:43.602Z,28.90
2023-04-21T09:09:13.082Z,27.10
2023-04-21T09:11:39.653Z,27.40
2023-04-21T09:14:06.542Z,28.00
2023-04-21T09:16:36.119Z,28.70
2023-04-21T09:19:16.940Z,28.70
2023-04-21T09:21:47.862Z,27.80
2023-04-21T09:24:14.333Z,27.20
2023-04-21T09:26:42.547Z,27.60
2023-04-21T09:29:09.193Z,27.70
2023-04-21T09:31:36.238Z,29.80
2023-04-21T09:34:03.203Z,30.20
2023-04-21T09:36:34.901Z,30.00
2023-04-21T09:41:48.782Z,28.80
2023-04-21T09:44:17.757Z,29.40
2023-04-21T09:46:52.391Z,30.20
2023-04-21T09:49:20.547Z,30.20
2023-04-21T09:54:32.723Z,28.60
2023-04-21T09:57:02.297Z,28.80
2023-04-21T09:59:36.924Z,28.10
2023-04-21T10:02:08.106Z,26.50
2023-04-21T10:04:37.023Z,27.60
2023-04-21T10:07:04.557Z,27.20
2023-04-21T10:09:40.225Z,27.60
2023-04-21T10:12:09.791Z,26.30
2023-04-21T10:14:36.541Z,26.80
2023-04-21T10:17:09.479Z,25.70
2023-04-21T10:19:41.686Z,26.30
2023-04-21T10:22:12.061Z,26.00
2023-04-21T10:24:43.153Z,25.90
2023-04-21T10:27:15.216Z,26.80
2023-04-21T10:29:56.039Z,27.20
2023-04-21T10:32:43.145Z,27.90
2023-04-21T10:35:49.964Z,27.90
2023-04-21T10:38:44.321Z,26.30
2023-04-21T10:41:31.011Z,26.60
2023-04-21T10:44:07.942Z,27.10
2023-04-21T10:46:36.376Z,26.70
2023-04-21T10:49:12.849Z,27.70
2023-04-21T10:51:57.585Z,27.10
2023-04-21T10:54:27.911Z,27.70
2023-04-21T10:56:56.512Z,26.50
2023-04-21T10:59:24.618Z,26.20
2023-04-21T11:01:52.777Z,26.90
2023-04-21T11:04:21.828Z,27.10
2023-04-21T11:07:11.851Z,26.70
2023-04-21T11:09:39.302Z,26.20
2023-04-21T11:12:20.426Z,26.30
2023-04-21T11:14:48.165Z,25.50
2023-04-21T11:17:18.099Z,25.00
2023-04-21T11:19:53.430Z,25.30
2023-04-21T11:22:23.360Z,24.70
2023-04-21T11:24:53.810Z,24.40
2023-04-21T11:27:22.299Z,25.20
2023-04-21T11:29:51.127Z,25.10
2023-04-21T11:32:18.080Z,25.00
2023-04-21T11:34:45.345Z,24.60
2023-04-21T11:37:20.751Z,24.20
2023-04-21T11:39:47.182Z,23.90
2023-04-21T11:42:24.067Z,24.30
2023-04-21T11:44:52.976Z,24.60
2023-04-21T11:47:23.018Z,24.30
2023-04-21T11:49:54.580Z,24.60
2023-04-21T11:52:31.182Z,24.20
2023-04-21T11:54:59.370Z,24.70
2023-04-21T11:57:28.311Z,24.20
2023-04-21T12:00:06.788Z,24.40
2023-04-21T12:02:34.028Z,24.70
2023-04-21T12:05:03.837Z,24.60
2023-04-21T12:07:35.614Z,24.30
2023-04-21T12:10:08.854Z,24.10
2023-04-21T12:12:41.207Z,24.00
2023-04-21T12:15:09.398Z,23.70
2023-04-21T12:17:57.730Z,23.70
2023-04-21T12:20:26.562Z,24.00
2023-04-21T12:22:53.491Z,23.10
2023-04-21T12:25:20.010Z,23.40
2023-04-21T12:27:51.195Z,24.00
2023-04-21T12:30:19.019Z,23.70
2023-04-21T12:32:45.904Z,24.10
2023-04-21T12:35:12.604Z,24.40
2023-04-21T12:37:41.313Z,24.30
2023-04-21T12:40:08.588Z,23.40
2023-04-21T12:42:37.467Z,24.40
2023-04-21T12:45:05.846Z,24.40
2023-04-21T12:47:32.504Z,24.00
2023-04-21T12:49:59.889Z,23.30
2023-04-21T12:52:26.894Z,23.10
2023-04-21T12:54:53.569Z,23.30
2023-04-21T12:57:21.545Z,23.70
2023-04-21T12:59:48.426Z,23.50
2023-04-21T13:02:15.205Z,23.50
2023-04-21T13:04:42.525Z,23.60
2023-04-21T13:07:09.239Z,23.10
2023-04-21T13:09:35.829Z,24.00
2023-04-21T13:12:05.464Z,24.80
2023-04-21T13:14:33.068Z,24.60
2023-04-21T13:17:02.117Z,24.50
2023-04-21T13:19:33.631Z,24.30
2023-04-21T13:22:01.214Z,24.20
2023-04-21T13:24:31.615Z,24.60
2023-04-21T13:26:58.991Z,23.40
2023-04-21T13:29:30.548Z,24.30
2023-04-21T13:31:57.177Z,23.60
2023-04-21T13:34:23.761Z,23.70
2023-04-21T13:36:50.971Z,24.00
2023-04-21T13:39:18.447Z,24.00
2023-04-21T13:41:45.197Z,24.20
2023-04-21T13:44:12.177Z,24.50
2023-04-21T13:46:38.901Z,24.90
2023-04-21T13:49:06.480Z,24.70
2023-04-21T13:51:33.657Z,24.60
2023-04-21T13:54:00.252Z,24.60
2023-04-21T13:56:26.798Z,24.90
2023-04-21T13:58:53.482Z,24.60
2023-04-21T14:01:21.734Z,24.40
2023-04-21T14:03:48.904Z,24.20
2023-04-21T14:06:18.613Z,24.50
2023-04-21T14:08:45.212Z,24.80
2023-04-21T14:11:11.731Z,24.50
2023-04-21T14:13:47.768Z,24.70
2023-04-21T14:16:25.048Z,24.90
2023-04-21T14:18:52.442Z,24.40
2023-04-21T14:21:18.928Z,24.30
2023-04-21T14:23:45.460Z,24.10
2023-04-21T14:26:12.010Z,24.00
2023-04-21T14:28:38.859Z,24.10
2023-04-21T14:31:05.555Z,24.40
2023-04-21T14:33:35.282Z,24.40
2023-04-21T14:36:02.107Z,24.20
2023-04-21T14:38:33.818Z,23.90
2023-04-21T14:41:00.413Z,24.30
2023-04-21T14:43:26.876Z,24.10
2023-04-21T14:45:53.624Z,24.60
2023-04-21T14:48:22.045Z,24.10
2023-04-21T14:50:48.511Z,24.10
2023-04-21T14:53:16.356Z,24.20
2023-04-21T14:55:42.929Z,24.60
2023-04-21T14:58:10.479Z,24.90
2023-04-21T15:00:38.135Z,24.30
2023-04-21T15:03:06.098Z,24.00
2023-04-21T15:05:34.835Z,23.60
2023-04-21T15:08:02.013Z,23.60
2023-04-21T15:10:34.567Z,24.20
2023-04-21T15:13:05.895Z,24.50
2023-04-21T15:15:32.848Z,24.20
2023-04-21T15:18:01.776Z,24.00
2023-04-21T15:20:43.074Z,24.30
2023-04-21T15:23:12.316Z,24.30
2023-04-21T15:25:40.825Z,24.00
2023-04-21T15:28:07.687Z,24.10
2023-04-21T15:30:34.180Z,24.00
2023-04-21T15:33:01.763Z,24.20
2023-04-21T15:35:31.824Z,23.40
2023-04-21T15:37:59.265Z,23.30
2023-04-21T15:40:53.132Z,23.10
2023-04-21T15:43:27.128Z,23.10
2023-04-21T15:45:53.760Z,22.90
2023-04-21T15:48:23.082Z,22.60
2023-04-21T15:50:50.257Z,22.50
2023-04-21T15:53:19.867Z,22.50
2023-04-21T15:55:47.038Z,22.00
2023-04-21T15:58:13.954Z,22.20
2023-04-21T16:00:41.847Z,21.90
2023-04-21T16:03:09.245Z,21.80
2023-04-21T16:05:36.283Z,22.10
2023-04-21T16:08:03.017Z,22.00
2023-04-21T16:10:30.040Z,21.70
2023-04-21T16:12:57.005Z,21.40
2023-04-21T16:15:25.019Z,21.60
2023-04-21T16:17:53.327Z,22.10
2023-04-21T16:20:19.950Z,22.00
2023-04-21T16:22:46.594Z,22.00
2023-04-21T16:25:16.327Z,21.70
2023-04-21T16:27:43.114Z,21.50
2023-04-21T16:30:10.940Z,21.30
2023-04-21T16:32:37.873Z,21.20
2023-04-21T16:35:10.524Z,21.20
2023-04-21T16:37:40.576Z,21.30
2023-04-21T16:40:10.016Z,21.00
2023-04-21T16:42:37.343Z,21.10
2023-04-21T16:45:05.131Z,21.00
2023-04-21T16:47:42.134Z,21.00
2023-04-21T16:50:09.509Z,20.60
2023-04-21T16:52:36.079Z,20.70
2023-04-21T16:55:02.602Z,20.60
2023-04-21T16:57:32.217Z,20.40
2023-04-21T16:59:59.501Z,20.40
2023-04-21T17:02:26.253Z,20.30
2023-04-21T17:04:55.981Z,20.30
2023-04-21T17:07:22.707Z,20.40
2023-04-21T17:09:51.338Z,20.20
2023-04-21T17:12:18.367Z,20.00
2023-04-21T17:14:44.894Z,19.90
2023-04-21T17:17:11.606Z,19.80
2023-04-21T17:19:38.568Z,19.60
2023-04-21T17:22:06.246Z,19.50
2023-04-21T17:24:44.912Z,19.40
2023-04-21T17:27:19.219Z,19.40
2023-04-21T17:29:46.300Z,19.30
2023-04-21T17:32:13.101Z,19.30
2023-04-21T17:34:40.129Z,19.00
2023-04-21T17:37:06.816Z,19.20
2023-04-21T17:39:33.991Z,19.00
2023-04-21T17:42:01.917Z,19.10
2023-04-21T17:44:28.414Z,18.80
2023-04-21T17:46:56.075Z,18.70
2023-04-21T17:49:24.745Z,18.60
2023-04-21T17:51:52.311Z,18.50
2023-04-21T17:54:18.873Z,18.50
2023-04-21T17:56:47.042Z,18.30
2023-04-21T17:59:14.074Z,18.20
2023-04-21T18:01:40.795Z,18.20
2023-04-21T18:04:13.360Z,18.00
2023-04-21T18:06:42.119Z,17.80
2023-04-21T18:09:09.625Z,17.70
2023-04-21T18:11:38.526Z,17.60
2023-04-21T18:14:05.923Z,17.50
2023-04-21T18:16:32.796Z,17.30
2023-04-21T18:18:59.405Z,17.20
2023-04-21T18:21:31.093Z,16.90
2023-04-21T18:23:58.508Z,16.90
2023-04-21T18:26:27.809Z,16.50
2023-04-21T18:28:54.927Z,16.60
2023-04-21T18:31:26.406Z,16.50
2023-04-21T18:33:53.785Z,16.30
2023-04-21T18:36:20.238Z,16.00
2023-04-21T18:38:47.391Z,16.00
2023-04-21T18:41:15.617Z,15.70
2023-04-21T18:43:42.440Z,15.60
2023-04-21T18:46:11.372Z,15.40
2023-04-21T18:48:38.074Z,15.30
2023-04-21T18:51:04.768Z,15.30
2023-04-21T18:53:31.268Z,15.10
2023-04-21T18:55:57.751Z,15.20
2023-04-21T18:58:24.279Z,15.10
2023-04-21T19:00:50.987Z,14.90
2023-04-21T19:03:19.129Z,14.80
2023-04-21T19:05:45.736Z,14.70
2023-04-21T19:08:12.197Z,14.60
2023-04-21T19:10:38.660Z,14.60
2023-04-21T19:13:09.714Z,14.40
2023-04-21T19:15:36.681Z,14.20
2023-04-21T19:18:03.184Z,14.10
2023-04-21T19:20:30.397Z,14.20
2023-04-21T19:22:56.881Z,13.90
2023-04-21T19:25:23.591Z,13.90
2023-04-21T19:27:50.339Z,13.80
2023-04-21T19:30:18.018Z,13.90
2023-04-21T19:32:44.997Z,13.80
2023-04-21T19:35:12.290Z,13.60
2023-04-21T19:37:39.094Z,13.60
2023-04-21T19:40:06.542Z,13.60
2023-04-21T19:42:32.996Z,13.40
2023-04-21T19:44:59.524Z,13.30
2023-04-21T19:47:26.250Z,13.40
2023-04-21T19:49:52.895Z,13.30
2023-04-21T19:52:20.364Z,13.20
2023-04-21T19:54:46.933Z,13.10
2023-04-21T19:57:13.444Z,13.10
2023-04-21T19:59:40.083Z,13.10
2023-04-21T20:02:07.335Z,12.70
2023-04-21T20:04:34.823Z,12.90
2023-04-21T20:07:01.523Z,12.70
2023-04-21T20:09:28.274Z,12.80
2023-04-21T20:11:55.070Z,12.70
2023-04-21T20:14:21.512Z,12.70
2023-04-21T20:16:48.219Z,12.60
2023-04-21T20:19:17.151Z,12.50
2023-04-21T20:21:47.478Z,12.60
2023-04-21T20:24:14.431Z,12.60
2023-04-21T20:26:40.965Z,12.60
2023-04-21T20:29:07.504Z,12.40
2023-04-21T20:31:34.313Z,12.30
2023-04-21T20:34:01.603Z,12.20
2023-04-21T20:36:28.602Z,12.10
2023-04-21T20:38:57.618Z,12.00
2023-04-21T20:41:24.423Z,12.10
2023-04-21T20:43:51.349Z,12.00
2023-04-21T20:46:18.523Z,12.00
2023-04-21T20:48:45.092Z,12.00
2023-04-21T20:51:12.316Z,11.90
2023-04-21T20:53:41.242Z,11.80
2023-04-21T20:56:09.473Z,11.70
2023-04-21T20:58:38.187Z,11.50
2023-04-21T21:01:05.211Z,11.50
2023-04-21T21:03:32.030Z,11.40
2023-04-21T21:05:58.756Z,11.40
2023-04-21T21:08:25.553Z,11.40
2023-04-21T21:10:55.717Z,11.40
2023-04-21T21:13:22.534Z,11.30
2023-04-21T21:15:49.454Z,11.40
2023-04-21T21:18:17.341Z,11.40
2023-04-21T21:20:43.826Z,11.50
2023-04-21T21:23:13.953Z,11.30
2023-04-21T21:25:40.775Z,11.30
2023-04-21T21:28:08.010Z,11.30
2023-04-21T21:30:34.651Z,11.30
2023-04-21T21:33:01.185Z,11.20
2023-04-21T21:35:27.930Z,11.20
2023-04-21T21:37:55.630Z,11.10
2023-04-21T21:40:22.228Z,11.10
2023-04-21T21:42:48.902Z,11.00
2023-04-21T21:45:15.676Z,11.00
2023-04-21T21:47:45.398Z,10.90
2023-04-21T21:50:13.784Z,10.90
2023-04-21T21:52:40.459Z,10.80
2023-04-21T21:55:07.571Z,10.70
2023-04-21T21:57:35.130Z,10.60
2023-04-21T22:00:02.367Z,10.60
2023-04-21T22:02:28.990Z,10.60
2023-04-21T22:04:56.540Z,10.50
2023-04-21T22:07:24.997Z,10.50
2023-04-21T22:09:53.426Z,10.40
2023-04-21T22:12:19.914Z,10.20
2023-04-21T22:14:47.103Z,10.40
2023-04-21T22:17:14.381Z,10.30
2023-04-21T22:19:41.943Z,10.30
2023-04-21T22:22:08.782Z,10.20
2023-04-21T22:24:35.399Z,10.10
2023-04-21T22:27:04.940Z,10.10
2023-04-21T22:29:31.412Z,10.00
2023-04-21T22:31:58.262Z,10.00
2023-04-21T22:34:25.047Z,10.00
2023-04-21T22:36:53.308Z,9.90
2023-04-21T22:39:19.943Z,9.90
2023-04-21T22:41:46.437Z,9.90
2023-04-21T22:44:14.087Z,9.80
2023-04-21T22:46:41.300Z,9.70
2023-04-21T22:49:09.192Z,9.70
2023-04-21T22:51:36.169Z,9.70
2023-04-21T22:54:03.565Z,9.70
2023-04-21T22:56:30.962Z,9.60
2023-04-21T22:58:57.627Z,9.50
2023-04-21T23:01:24.349Z,9.50
2023-04-21T23:03:51.448Z,9.40
2023-04-21T23:06:18.039Z,9.30
2023-04-21T23:08:44.609Z,9.40
2023-04-21T23:11:11.071Z,9.30
2023-04-21T23:13:37.580Z,9.30
2023-04-21T23:16:04.016Z,9.30
2023-04-21T23:18:30.524Z,9.10
2023-04-21T23:20:58.112Z,9.10
2023-04-21T23:23:24.893Z,9.10
2023-04-21T23:25:51.627Z,9.10
2023-04-21T23:28:20.297Z,9.00
2023-04-21T23:30:46.793Z,8.90
2023-04-21T23:33:13.384Z,8.90
2023-04-21T23:35:39.948Z,8.90
2023-04-21T23:38:06.677Z,9.00
2023-04-21T23:40:33.228Z,8.90
2023-04-21T23:42:59.792Z,8.80
2023-04-21T23:45:26.243Z,8.80
2023-04-21T23:47:52.889Z,8.80
2023-04-21T23:50:19.665Z,8.80
2023-04-21T23:52:48.415Z,8.70
2023-04-21T23:55:15.042Z,8.50
2023-04-21T23:57:44.434Z,8.60
